Ferry Kyoto2 — JI3701 — position and weather

sailwx.info

Track history (hours):
 
Tides and Currents Weather Stations Pressure Air Temp Water Temp Dewpoint Dewpoint Depression Visibility Wind Speed Wind Dir Waves Ship Positions

Ferry Kyoto2

Last reported at 2014-Sep-22 18:22 UTC. Time now 2014-Sep-23 12:26 UTC.
Position N 33°57' E 132°41'.

Length 167 m; draft 6 m.

Type: Passenger vessel. MMSI: 431301641.

Date/timePositionNaut miles runAvg speedWind from/ knotsBaromVisibWave heightAir tempDewpointWater temp
2014-Sep-22 18:22N 33°57' E 132°41'10918.6
2014-Sep-22 12:32N 34°33' E 134°45'2222.4
2014-Sep-22 11:33N 34°36' E 135°12'1211.5
2014-Sep-22 10:32N 34°37' E 135°26'0 0.0
2014-Sep-22 09:32N 34°37' E 135°26'0 0.0
2014-Sep-22 08:32N 34°37' E 135°26'0 0.0
2014-Sep-22 07:32N 34°37' E 135°26'0 0.0
2014-Sep-22 06:26N 34°37' E 135°26'0 0.0
2014-Sep-22 05:20N 34°37' E 135°26'0 0.0
2014-Sep-22 04:32N 34°37' E 135°26'0 0.0
2014-Sep-22 03:32N 34°37' E 135°26'0 0.0
2014-Sep-22 02:32N 34°37' E 135°26'0 0.0
2014-Sep-22 01:32N 34°37' E 135°26'0 0.0
2014-Sep-22 00:32N 34°37' E 135°26'0 0.0
2014-Sep-21 23:34N 34°37' E 135°26'1110.6
2014-Sep-21 22:34N 34°35' E 135°13'1717.4
2014-Sep-21 21:34N 34°34' E 134°52'9718.3
2014-Sep-21 16:15N 34°07' E 132°59'1113.7
2014-Sep-21 15:28N 34°02' E 132°48'2121.6
2014-Sep-21 14:31N 33°48' E 132°30'13 0.6
2014-Sep-20 18:30N 33°57' E 132°41'11318.7
2014-Sep-20 12:27N 34°35' E 134°50'1921.0
2014-Sep-20 11:33N 34°36' E 135°13'1110.0
2014-Sep-20 10:29N 34°37' E 135°26'0 0.0
2014-Sep-20 09:23N 34°37' E 135°26'0 0.0
2014-Sep-20 08:29N 34°37' E 135°26'0 0.0
2014-Sep-20 07:29N 34°37' E 135°26'0 0.0
2014-Sep-20 06:29N 34°37' E 135°26'0 0.0
2014-Sep-20 05:29N 34°37' E 135°26'0 0.0
2014-Sep-20 04:23N 34°37' E 135°26'0 0.0
2014-Sep-20 03:23N 34°37' E 135°26'0 0.0
2014-Sep-20 02:29N 34°37' E 135°26'0 0.0
2014-Sep-20 01:29N 34°37' E 135°26'0 0.0
2014-Sep-20 00:29N 34°37' E 135°26'0 0.0
2014-Sep-19 23:32N 34°37' E 135°26'1010.1
2014-Sep-19 22:33N 34°35' E 135°14'1717.5
2014-Sep-19 21:33N 34°34' E 134°53'9818.1
2014-Sep-19 16:09N 34°07' E 132°59'1115.6
2014-Sep-19 15:26N 34°02' E 132°47'2021.4
2014-Sep-19 14:28N 33°51' E 132°27'126 4.8
2014-Sep-18 12:31N 34°34' E 134°49'2020.6
2014-Sep-18 11:33N 34°36' E 135°13'1010.3
2014-Sep-18 10:33N 34°37' E 135°26'0 0.0
2014-Sep-18 09:33N 34°37' E 135°26'0 0.0
2014-Sep-18 08:33N 34°37' E 135°26'0 0.0
2014-Sep-18 07:33N 34°37' E 135°26'0 0.0
2014-Sep-18 06:33N 34°37' E 135°26'0 0.0
2014-Sep-18 05:33N 34°37' E 135°26'0 0.0
2014-Sep-18 04:33N 34°37' E 135°26'0 0.0
2014-Sep-18 03:33N 34°37' E 135°26'0 0.0
2014-Sep-18 02:33N 34°37' E 135°26'0 0.0
2014-Sep-18 01:33N 34°37' E 135°26'0 0.0
2014-Sep-18 00:33N 34°37' E 135°26'0 0.0
2014-Sep-17 23:33N 34°37' E 135°26'10 9.9
2014-Sep-17 22:33N 34°35' E 135°14'1919.2
2014-Sep-17 21:33N 34°34' E 134°51'1 0.0
2014-Sep-16 12:33N 34°34' E 134°49'2020.2
2014-Sep-16 11:33N 34°36' E 135°14'10 9.5
2014-Sep-16 10:31N 34°37' E 135°26'0 0.0
2014-Sep-16 09:31N 34°37' E 135°26'0 0.0
2014-Sep-16 08:31N 34°37' E 135°26'0 0.0
2014-Sep-16 07:31N 34°37' E 135°26'0 0.0
2014-Sep-16 06:31N 34°37' E 135°26'0 0.0
2014-Sep-16 05:31N 34°37' E 135°26'0 0.0
2014-Sep-16 04:19N 34°37' E 135°26'0 0.0
2014-Sep-16 03:19N 34°37' E 135°26'0 0.0
2014-Sep-16 02:31N 34°37' E 135°26'0 0.0
2014-Sep-16 01:31N 34°37' E 135°26'0 0.0
2014-Sep-16 00:13N 34°37' E 135°26'0 0.0
2014-Sep-15 23:31N 34°37' E 135°26'9 8.9
2014-Sep-15 22:33N 34°35' E 135°16'1918.8
2014-Sep-15 21:33N 34°35' E 134°53'4 0.1
2014-Sep-14 12:31N 34°34' E 134°48'2020.5
2014-Sep-14 11:34N 34°36' E 135°11'1210.4
2014-Sep-14 10:25N 34°37' E 135°26'0 0.0
2014-Sep-14 09:31N 34°37' E 135°26'0 0.0
2014-Sep-14 08:31N 34°37' E 135°26'0 0.0
2014-Sep-14 07:31N 34°37' E 135°26'0 0.0
2014-Sep-14 06:31N 34°37' E 135°26'0 0.0
2014-Sep-14 05:31N 34°37' E 135°26'0 0.0
2014-Sep-14 04:31N 34°37' E 135°26'0 0.0
2014-Sep-14 03:31N 34°37' E 135°26'0 0.0
2014-Sep-14 02:31N 34°37' E 135°26'0 0.0
2014-Sep-14 01:31N 34°37' E 135°26'23 5.9
2014-Sep-13 21:33N 34°36' E 134°58'  
Track history (hours):
 
Tides and Currents Weather Stations Pressure Air Temp Water Temp Dewpoint Dewpoint Depression Visibility Wind Speed Wind Dir Waves Ship Positions

Ferry Kyoto2

Last reported at 2014-Sep-22 18:22 UTC. Time now 2014-Sep-23 12:26 UTC.
Position N 33°57' E 132°41'.

Length 167 m; draft 6 m.

Type: Passenger vessel. MMSI: 431301641.

Date/timePositionNaut miles runAvg speedWind from/ knotsBaromVisibWave heightAir tempDewpointWater temp
2014-Sep-22 18:22N 33°57' E 132°41'10918.6
2014-Sep-22 12:32N 34°33' E 134°45'2222.4
2014-Sep-22 11:33N 34°36' E 135°12'1211.5
2014-Sep-22 10:32N 34°37' E 135°26'0 0.0
2014-Sep-22 09:32N 34°37' E 135°26'0 0.0
2014-Sep-22 08:32N 34°37' E 135°26'0 0.0
2014-Sep-22 07:32N 34°37' E 135°26'0 0.0
2014-Sep-22 06:26N 34°37' E 135°26'0 0.0
2014-Sep-22 05:20N 34°37' E 135°26'0 0.0
2014-Sep-22 04:32N 34°37' E 135°26'0 0.0
2014-Sep-22 03:32N 34°37' E 135°26'0 0.0
2014-Sep-22 02:32N 34°37' E 135°26'0 0.0
2014-Sep-22 01:32N 34°37' E 135°26'0 0.0
2014-Sep-22 00:32N 34°37' E 135°26'0 0.0
2014-Sep-21 23:34N 34°37' E 135°26'1110.6
2014-Sep-21 22:34N 34°35' E 135°13'1717.4
2014-Sep-21 21:34N 34°34' E 134°52'9718.3
2014-Sep-21 16:15N 34°07' E 132°59'1113.7
2014-Sep-21 15:28N 34°02' E 132°48'2121.6
2014-Sep-21 14:31N 33°48' E 132°30'13 0.6
2014-Sep-20 18:30N 33°57' E 132°41'11318.7
2014-Sep-20 12:27N 34°35' E 134°50'1921.0
2014-Sep-20 11:33N 34°36' E 135°13'1110.0
2014-Sep-20 10:29N 34°37' E 135°26'0 0.0
2014-Sep-20 09:23N 34°37' E 135°26'0 0.0
2014-Sep-20 08:29N 34°37' E 135°26'0 0.0
2014-Sep-20 07:29N 34°37' E 135°26'0 0.0
2014-Sep-20 06:29N 34°37' E 135°26'0 0.0
2014-Sep-20 05:29N 34°37' E 135°26'0 0.0
2014-Sep-20 04:23N 34°37' E 135°26'0 0.0
2014-Sep-20 03:23N 34°37' E 135°26'0 0.0
2014-Sep-20 02:29N 34°37' E 135°26'0 0.0
2014-Sep-20 01:29N 34°37' E 135°26'0 0.0
2014-Sep-20 00:29N 34°37' E 135°26'0 0.0
2014-Sep-19 23:32N 34°37' E 135°26'1010.1
2014-Sep-19 22:33N 34°35' E 135°14'1717.5
2014-Sep-19 21:33N 34°34' E 134°53'9818.1
2014-Sep-19 16:09N 34°07' E 132°59'1115.6
2014-Sep-19 15:26N 34°02' E 132°47'2021.4
2014-Sep-19 14:28N 33°51' E 132°27'126 4.8
2014-Sep-18 12:31N 34°34' E 134°49'2020.6
2014-Sep-18 11:33N 34°36' E 135°13'1010.3
2014-Sep-18 10:33N 34°37' E 135°26'0 0.0
2014-Sep-18 09:33N 34°37' E 135°26'0 0.0
2014-Sep-18 08:33N 34°37' E 135°26'0 0.0
2014-Sep-18 07:33N 34°37' E 135°26'0 0.0
2014-Sep-18 06:33N 34°37' E 135°26'0 0.0
2014-Sep-18 05:33N 34°37' E 135°26'0 0.0
2014-Sep-18 04:33N 34°37' E 135°26'0 0.0
2014-Sep-18 03:33N 34°37' E 135°26'0 0.0
2014-Sep-18 02:33N 34°37' E 135°26'0 0.0
2014-Sep-18 01:33N 34°37' E 135°26'0 0.0
2014-Sep-18 00:33N 34°37' E 135°26'0 0.0
2014-Sep-17 23:33N 34°37' E 135°26'10 9.9
2014-Sep-17 22:33N 34°35' E 135°14'1919.2
2014-Sep-17 21:33N 34°34' E 134°51'1 0.0
2014-Sep-16 12:33N 34°34' E 134°49'2020.2
2014-Sep-16 11:33N 34°36' E 135°14'10 9.5
2014-Sep-16 10:31N 34°37' E 135°26'0 0.0
2014-Sep-16 09:31N 34°37' E 135°26'0 0.0
2014-Sep-16 08:31N 34°37' E 135°26'0 0.0
2014-Sep-16 07:31N 34°37' E 135°26'0 0.0
2014-Sep-16 06:31N 34°37' E 135°26'0 0.0
2014-Sep-16 05:31N 34°37' E 135°26'0 0.0
2014-Sep-16 04:19N 34°37' E 135°26'0 0.0
2014-Sep-16 03:19N 34°37' E 135°26'0 0.0
2014-Sep-16 02:31N 34°37' E 135°26'0 0.0
2014-Sep-16 01:31N 34°37' E 135°26'0 0.0
2014-Sep-16 00:13N 34°37' E 135°26'0 0.0
2014-Sep-15 23:31N 34°37' E 135°26'9 8.9
2014-Sep-15 22:33N 34°35' E 135°16'1918.8
2014-Sep-15 21:33N 34°35' E 134°53'4 0.1
2014-Sep-14 12:31N 34°34' E 134°48'2020.5
2014-Sep-14 11:34N 34°36' E 135°11'1210.4
2014-Sep-14 10:25N 34°37' E 135°26'0 0.0
2014-Sep-14 09:31N 34°37' E 135°26'0 0.0
2014-Sep-14 08:31N 34°37' E 135°26'0 0.0
2014-Sep-14 07:31N 34°37' E 135°26'0 0.0
2014-Sep-14 06:31N 34°37' E 135°26'0 0.0
2014-Sep-14 05:31N 34°37' E 135°26'0 0.0
2014-Sep-14 04:31N 34°37' E 135°26'0 0.0
2014-Sep-14 03:31N 34°37' E 135°26'0 0.0
2014-Sep-14 02:31N 34°37' E 135°26'0 0.0
2014-Sep-14 01:31N 34°37' E 135°26'23 5.9
2014-Sep-13 21:33N 34°36' E 134°58'  

Dump ship's entire track history